ETHF 200020Z AUTO 30002KT 0100 // ////// 13/13 Q1021 /// ETHF 192320Z AUTO 13001KT 0700 // ////// 14/13 Q1021 /// ETHF 192220Z AUTO VRB01KT 5000 // ////// 15/14 Q1021 /// ETHF 192120Z AUTO 19004KT 4500 // ////// 15/15 Q1020 /// ETHF 192020Z AUTO VRB01KT 6000 // ////// 16/15 Q1021 /// ETHF 191920Z AUTO 30003KT 5000 // ////// 17/15 Q1020 /// ETHF 191820Z AUTO 21006KT 5000 // ////// 17/15 Q1019 /// ETHF 191738Z 14006KT 8000 -TSRA SCT050CB BKN080 17/15 Q1020 RESHRA BLU ETHF 191720Z 19004KT 5000 TSRA BKN050CB BKN080 19/15 Q1021 WHT ETHF 191710Z 26006KT 6000 TSRA BKN050CB BKN080 19/15 Q1020 WHT ETHF 191643Z 30018KT 9999 -TSRA SCT050CB BKN080 23/11 Q1019 BLU ETHF 191620Z 29006KT 9999 VCTS VCSH FEW050CB SCT080 BKN300 25/14 Q1018 BLU+ ETHF 191520Z 21009KT 9999 VCSH FEW050TCU BKN080 BKN200 27/14 Q1017 BLU ETHF 191500Z 19010KT 9999 FEW050TCU SCT090 BKN240 26/13 Q1017 BLU+FCST CNL ETHF 191420Z 20008KT 9999 FEW050 BKN240 27/14 Q1017 BLU+BLU+ ETHF 191320Z 18007KT 9999 FEW120 SCT220 BKN280 27/13 Q1018 BLU+BLU+ ETHF 191220Z 17009KT 9999 FEW120 BKN220 26/11 Q1018 BLU+BLU+ ETHF 191120Z 19008KT 9999 FEW120 SCT220 BKN270 25/11 Q1019 BLU+BLU+ ETHF 191020Z 18007KT 9999 FEW120 BKN280 25/10 Q1020 BLU+BLU+ ETHF 190920Z 16004KT 9999 FEW130 BKN280 24/11 Q1020 BLU+BLU+ ETHF 190820Z 17006KT 9999 FEW130 BKN260 22/10 Q1020 BLU+BLU+ ETHF 190720Z 15004KT 9999 BKN280 20/13 Q1021 BLU+BLU+ ETHF 190620Z 10002KT 9999 SCT250 BKN290 18/13 Q1021 BLU+BLU+ ETHF 190520Z 09002KT 9999 BKN250 16/13 Q1021 BLU+BLU+ ETHF 190420Z VRB01KT 9999 MIFG BKN250 12/12 Q1021 BLU+BLU+ ETHF 190320Z 25001KT 9999 MIFG BKN250 13/12 Q1021 BLU+ ETHF 190220Z AUTO 00000KT 5000 // ////// 13/12 Q1021 /// ETHF 190120Z AUTO 31001KT 5000 // ////// 14/13 Q1021 /// ETHF 190020Z AUTO 30002KT 4600 // ////// 14/13 Q1021 /// ETHF 182320Z AUTO 29003KT 5000 // ////// 15/13 Q1021 /// ETHF 182220Z AUTO 29002KT 6000 // ////// 16/14 Q1021 /// ETHF 182120Z AUTO 31001KT 6000 // ////// 17/15 Q1021 /// ETHF 182020Z AUTO 25001KT 8000 // ////// 19/16 Q1021 /// ETHF 181920Z AUTO 25002KT 7000 // ////// 21/16 Q1021 /// ETHF 181820Z AUTO 18002KT 7000 // ////// 23/15 Q1021 /// ETHF 181720Z 15003KT 9999 FEW055 BKN340 26/14 Q1021 BLU+ ETHF 181620Z 16006KT 9999 FEW055 BKN340 26/13 Q1021 BLU+ ETHF 181520Z 20006KT 9999 FEW055 BKN340 27/14 Q1021 BLU+ ETHF 181500Z 21006KT 9999 FEW055 BKN340 27/14 Q1021 BLU+FCST CNL ETHF 181420Z 21006KT 9999 FEW055 BKN340 26/12 Q1022 BLU+BLU+ ETHF 181320Z 16006KT 9999 FEW050 BKN350 26/13 Q1022 BLU+BLU+

METAR Messwerte "FRITZLAR (GER-AR" ETHF

Zurück zur Übersicht

Ortsname
Ländercode / m ü. NN
Zeit Temperatur Taupunkt Rel.
Luftfeuchte
Luftdruck:
Altimeter
NN
Station
Wind in Beaufort
(Knoten)
Sichtweite
(Meter)
Wolken
(Meter über Grund)
Wettererscheinung
FRITZLAR (GER-AR
DE 171
Fr 20.05. 02:201313100 %1021
1021
1000
WNW 1 (2)100  
FRITZLAR (GER-AR
DE 171
Fr 20.05. 01:20141394 %1021
1021
1000
SO 1 (1)700  
FRITZLAR (GER-AR
DE 171
Fr 20.05. 00:20151494 %1021
1021
1000
Uml 1 (1)5000  
FRITZLAR (GER-AR
DE 171
Do 19.05. 23:201515100 %1020
1020
1000
S 2 (4)4500  
FRITZLAR (GER-AR
DE 171
Do 19.05. 22:20161594 %1021
1021
1000
Uml 1 (1)6000  
FRITZLAR (GER-AR
DE 171
Do 19.05. 21:20171588 %1020
1020
1000
WNW 2 (3)5000  
FRITZLAR (GER-AR
DE 171
Do 19.05. 20:20171588 %1019
1019
999
SSW 2 (6)5000  
FRITZLAR (GER-AR
DE 171
Do 19.05. 19:38171588 %1020
1020
1000
SO 2 (6)8000Stark bewölkt (2400)
Wolkig Cb (1500)
Gewitter mit Regen (schwach)
FRITZLAR (GER-AR
DE 171
Do 19.05. 19:20191578 %1021
1021
1000
S 2 (4)5000Stark bewölkt (2400)
Stark bewölkt Cb (1500)
Gewitter mit Regen
FRITZLAR (GER-AR
DE 171
Do 19.05. 19:10191578 %1020
1020
1000
W 2 (6)6000Stark bewölkt (2400)
Stark bewölkt Cb (1500)
Gewitter mit Regen
FRITZLAR (GER-AR
DE 171
Do 19.05. 18:43231147 %1019
1018
999
WNW 5 (18)>= 10000Stark bewölkt (2400)
Wolkig Cb (1500)
Gewitter mit Regen (schwach)
FRITZLAR (GER-AR
DE 171
Do 19.05. 18:20251450 %1018
1017
998
WNW 2 (6)>= 10000Stark bewölkt (9100)
Wolkig (2400)
Leicht bewölkt Cb (1500)
 
FRITZLAR (GER-AR
DE 171
Do 19.05. 17:20271445 %1017
1016
997
SSW 3 (9)>= 10000Stark bewölkt (6100)
Stark bewölkt (2400)
Leicht bewölkt (1500)
 
FRITZLAR (GER-AR
DE 171
Do 19.05. 17:00261345 %1017
1016
997
S 3 (10)>= 10000Stark bewölkt (7300)
Wolkig (2700)
Leicht bewölkt (1500)
 
FRITZLAR (GER-AR
DE 171
Do 19.05. 16:20271445 %1017
1016
997
SSW 3 (8)>= 10000Stark bewölkt (7300)
Leicht bewölkt (1500)
 
FRITZLAR (GER-AR
DE 171
Do 19.05. 15:20271342 %1018
1017
998
S 3 (7)>= 10000Stark bewölkt (8500)
Wolkig (6700)
Leicht bewölkt (3700)
 
FRITZLAR (GER-AR
DE 171
Do 19.05. 14:20261139 %1018
1017
998
S 3 (9)>= 10000Stark bewölkt (6700)
Leicht bewölkt (3700)
 
FRITZLAR (GER-AR
DE 171
Do 19.05. 13:20251141 %1019
1018
999
S 3 (8)>= 10000Stark bewölkt (8200)
Wolkig (6700)
Leicht bewölkt (3700)
 
FRITZLAR (GER-AR
DE 171
Do 19.05. 12:20251039 %1020
1019
1000
S 3 (7)>= 10000Stark bewölkt (8500)
Leicht bewölkt (3700)
 
FRITZLAR (GER-AR
DE 171
Do 19.05. 11:20241144 %1020
1019
1000
SSO 2 (4)>= 10000Stark bewölkt (8500)
Leicht bewölkt (4000)
 
FRITZLAR (GER-AR
DE 171
Do 19.05. 10:20221046 %1020
1020
1000
S 2 (6)>= 10000Stark bewölkt (7900)
Leicht bewölkt (4000)
 
FRITZLAR (GER-AR
DE 171
Do 19.05. 09:20201364 %1021
1021
1000
SSO 2 (4)>= 10000Stark bewölkt (8500) 
FRITZLAR (GER-AR
DE 171
Do 19.05. 08:20181373 %1021
1021
1000
O 1 (2)>= 10000Stark bewölkt (8800)
Wolkig (7600)
 
FRITZLAR (GER-AR
DE 171
Do 19.05. 07:20161382 %1021
1021
1000
O 1 (2)>= 10000Stark bewölkt (7600) 
FRITZLAR (GER-AR
DE 171
Do 19.05. 06:201212100 %1021
1021
1000
Uml 1 (1)>= 10000Stark bewölkt (7600)Boden-Nebel
FRITZLAR (GER-AR
DE 171
Do 19.05. 05:20131294 %1021
1021
1000
WSW 1 (1)>= 10000Stark bewölkt (7600)Boden-Nebel
FRITZLAR (GER-AR
DE 171
Do 19.05. 04:20131294 %1021
1021
1000
Windstill5000  
FRITZLAR (GER-AR
DE 171
Do 19.05. 03:20141394 %1021
1021
1000
NW 1 (1)5000  
FRITZLAR (GER-AR
DE 171
Do 19.05. 02:20141394 %1021
1021
1000
WNW 1 (2)4600  
FRITZLAR (GER-AR
DE 171
Do 19.05. 01:20151388 %1021
1021
1000
WNW 2 (3)5000  
FRITZLAR (GER-AR
DE 171
Do 19.05. 00:20161488 %1021
1021
1000
WNW 1 (2)6000  
FRITZLAR (GER-AR
DE 171
Mi 18.05. 23:20171588 %1021
1021
1000
NW 1 (1)6000  
FRITZLAR (GER-AR
DE 171
Mi 18.05. 22:20191683 %1021
1021
1000
WSW 1 (1)8000  
FRITZLAR (GER-AR
DE 171
Mi 18.05. 21:20211673 %1021
1021
1000
WSW 1 (2)7000  
FRITZLAR (GER-AR
DE 171
Mi 18.05. 20:20231561 %1021
1020
1000
S 1 (2)7000  
FRITZLAR (GER-AR
DE 171
Mi 18.05. 19:20261448 %1021
1020
1000
SSO 2 (3)>= 10000Stark bewölkt (10000)
Leicht bewölkt (1700)
 
FRITZLAR (GER-AR
DE 171
Mi 18.05. 18:20261345 %1021
1020
1000
SSO 2 (6)>= 10000Stark bewölkt (10000)
Leicht bewölkt (1700)
 
FRITZLAR (GER-AR
DE 171
Mi 18.05. 17:20271445 %1021
1020
1000
SSW 2 (6)>= 10000Stark bewölkt (10000)
Leicht bewölkt (1700)
 
FRITZLAR (GER-AR
DE 171
Mi 18.05. 17:00271445 %1021
1020
1000
SSW 2 (6)>= 10000Stark bewölkt (10000)
Leicht bewölkt (1700)
 
FRITZLAR (GER-AR
DE 171
Mi 18.05. 16:20261242 %1022
1021
1001
SSW 2 (6)>= 10000Stark bewölkt (10000)
Leicht bewölkt (1700)
 
FRITZLAR (GER-AR
DE 171
Mi 18.05. 15:20261345 %1022
1021
1001
SSO 2 (6)>= 10000Stark bewölkt (11000)
Leicht bewölkt (1500)
 

Altimeter: Einstellung am Altimeter (Höhenmesser), die Höhe 0 muss auf diesen Luftdruckwert zeigen, damit das Gerät die Stationshöhe richtig anzeigt.

NN: Luftdruck reduziert auf "Normal Null", auf Meereshöhe, dieser von der Temperatur abhängige Wert wird bisweilen unkorrekt einfach als "Luftdruck" bezeichnet. Eigentlich nur eine fiktive Größe, die es erlaubt, Stationen auf unterschiedlichen Höhen miteinander zu vergleichen.

Station: Realer Luftdruck an der Station.